Time;durP1;ratioP1;P1;durP2;ratioP2;P2;SDS_P1;SDS_P2;PMS_P1;PMS_P2;Temp;Humidity;BMP_temperature;BMP_pressure;BME280_temperature;BME280_humidity;BME280_pressure;Samples;Min_cycle;Max_cycle;Signal;HPM_P1;HPM_P2
2021/09/15 00:02:09;;;;;;;4.87;4.24;;;;;;;21.20;73.12;100140.36;;;;-61
2021/09/15 00:05:09;;;;;;;4.72;4.15;;;;;;;21.20;73.12;100135.63;;;;-53
2021/09/15 00:08:09;;;;;;;4.88;4.39;;;;;;;21.20;73.11;100138.41;;;;-52
2021/09/15 00:11:11;;;;;;;4.50;4.03;;;;;;;21.20;73.15;100138.16;;;;-53
2021/09/15 00:14:09;;;;;;;5.07;4.31;;;;;;;21.19;73.09;100136.70;;;;-53
2021/09/15 00:17:09;;;;;;;4.56;4.10;;;;;;;21.19;73.17;100134.77;;;;-52
2021/09/15 00:20:09;;;;;;;4.53;4.06;;;;;;;21.19;73.18;100129.95;;;;-59
2021/09/15 00:23:09;;;;;;;4.45;4.05;;;;;;;21.18;73.10;100127.90;;;;-52
2021/09/15 00:26:09;;;;;;;4.93;3.96;;;;;;;21.18;73.03;100127.73;;;;-52
2021/09/15 00:29:09;;;;;;;4.88;4.38;;;;;;;21.17;73.10;100123.44;;;;-52
2021/09/15 00:32:09;;;;;;;5.13;4.20;;;;;;;21.17;73.08;100121.73;;;;-61
2021/09/15 00:35:09;;;;;;;4.64;4.15;;;;;;;21.17;73.20;100116.34;;;;-54
2021/09/15 00:38:09;;;;;;;4.37;3.90;;;;;;;21.17;73.11;100117.48;;;;-53
2021/09/15 00:41:09;;;;;;;4.38;3.85;;;;;;;21.17;73.12;100119.30;;;;-52
2021/09/15 00:44:10;;;;;;;4.55;4.15;;;;;;;21.16;73.09;100119.36;;;;-52
2021/09/15 00:47:09;;;;;;;4.44;3.93;;;;;;;21.16;73.13;100117.80;;;;-61
2021/09/15 00:50:09;;;;;;;4.71;4.24;;;;;;;21.16;73.15;100121.63;;;;-58
2021/09/15 00:53:09;;;;;;;4.41;4.01;;;;;;;21.15;73.16;100114.25;;;;-59
2021/09/15 00:56:09;;;;;;;4.53;4.13;;;;;;;21.15;73.13;100109.77;;;;-54
2021/09/15 00:59:09;;;;;;;4.07;3.69;;;;;;;21.15;73.22;100104.80;;;;-52
2021/09/15 01:02:09;;;;;;;4.26;3.86;;;;;;;21.14;73.14;100101.03;;;;-53
2021/09/15 01:05:09;;;;;;;4.27;3.87;;;;;;;21.15;73.17;100099.26;;;;-52
2021/09/15 01:08:09;;;;;;;4.77;4.29;;;;;;;21.14;73.10;100097.20;;;;-52
2021/09/15 01:11:09;;;;;;;5.94;4.02;;;;;;;21.14;73.13;100094.69;;;;-53
2021/09/15 01:14:09;;;;;;;4.87;4.11;;;;;;;21.14;73.17;100092.48;;;;-53
2021/09/15 01:17:09;;;;;;;4.58;3.95;;;;;;;21.14;73.18;100094.03;;;;-53
2021/09/15 01:20:09;;;;;;;4.37;3.97;;;;;;;21.14;73.09;100098.44;;;;-53
2021/09/15 01:23:09;;;;;;;4.61;4.12;;;;;;;21.13;73.17;100090.22;;;;-53
2021/09/15 01:26:09;;;;;;;4.34;3.94;;;;;;;21.12;73.17;100086.78;;;;-54
2021/09/15 01:29:09;;;;;;;4.15;3.75;;;;;;;21.13;73.16;100084.44;;;;-53
2021/09/15 01:32:09;;;;;;;4.42;4.01;;;;;;;21.12;73.19;100085.48;;;;-58
2021/09/15 01:35:09;;;;;;;4.31;3.94;;;;;;;21.12;73.17;100088.17;;;;-59
2021/09/15 01:38:09;;;;;;;4.61;3.55;;;;;;;21.12;73.17;100087.70;;;;-61
2021/09/15 01:41:09;;;;;;;4.30;3.80;;;;;;;21.12;73.22;100087.61;;;;-61
2021/09/15 01:44:09;;;;;;;4.53;4.13;;;;;;;21.12;73.21;100089.48;;;;-61
2021/09/15 01:47:09;;;;;;;4.25;3.85;;;;;;;21.12;73.22;100088.84;;;;-61
2021/09/15 01:50:09;;;;;;;4.44;3.80;;;;;;;21.12;73.13;100090.30;;;;-52
2021/09/15 01:53:09;;;;;;;3.95;3.47;;;;;;;21.11;73.08;100084.62;;;;-52
2021/09/15 01:56:09;;;;;;;4.15;3.75;;;;;;;21.11;73.26;100088.84;;;;-52
2021/09/15 01:59:09;;;;;;;4.21;3.81;;;;;;;21.10;73.20;100096.41;;;;-53
2021/09/15 02:02:11;;;;;;;4.52;4.05;;;;;;;21.10;73.16;100113.44;;;;-53
2021/09/15 02:05:09;;;;;;;3.87;3.55;;;;;;;21.10;73.20;100114.58;;;;-53
2021/09/15 02:08:09;;;;;;;4.33;3.93;;;;;;;21.10;73.24;100124.61;;;;-54
2021/09/15 02:11:09;;;;;;;4.13;3.74;;;;;;;21.10;73.23;100124.13;;;;-53
2021/09/15 02:14:09;;;;;;;3.99;3.59;;;;;;;21.10;73.26;100133.16;;;;-61
2021/09/15 02:17:09;;;;;;;4.28;3.88;;;;;;;21.09;73.22;100126.91;;;;-61
2021/09/15 02:20:09;;;;;;;3.86;3.55;;;;;;;21.09;73.18;100124.30;;;;-61
2021/09/15 02:23:09;;;;;;;4.19;3.79;;;;;;;21.09;73.20;100115.33;;;;-61
2021/09/15 02:26:09;;;;;;;4.13;3.73;;;;;;;21.09;73.22;100110.94;;;;-61
2021/09/15 02:29:09;;;;;;;4.36;3.66;;;;;;;21.09;73.17;100100.84;;;;-61
2021/09/15 02:32:09;;;;;;;4.35;3.71;;;;;;;21.07;73.24;100095.70;;;;-61
2021/09/15 02:35:09;;;;;;;3.75;3.43;;;;;;;21.08;73.20;100092.11;;;;-61
2021/09/15 02:38:09;;;;;;;4.07;3.68;;;;;;;21.08;73.23;100094.41;;;;-62
2021/09/15 02:41:09;;;;;;;4.02;3.61;;;;;;;21.07;73.22;100091.95;;;;-61
2021/09/15 02:44:09;;;;;;;3.91;3.57;;;;;;;21.07;73.22;100085.27;;;;-61
2021/09/15 02:47:09;;;;;;;4.21;3.81;;;;;;;21.07;73.24;100086.50;;;;-61
2021/09/15 02:50:09;;;;;;;4.03;3.64;;;;;;;21.07;73.23;100080.97;;;;-61
2021/09/15 02:53:10;;;;;;;3.86;3.51;;;;;;;21.06;73.25;100082.25;;;;-52
2021/09/15 02:56:09;;;;;;;3.91;3.58;;;;;;;21.07;73.21;100077.55;;;;-52
2021/09/15 02:59:09;;;;;;;3.97;3.63;;;;;;;21.06;73.33;100075.17;;;;-52
2021/09/15 03:02:09;;;;;;;3.69;3.39;;;;;;;21.06;73.28;100068.74;;;;-59
2021/09/15 03:05:09;;;;;;;3.84;3.54;;;;;;;21.06;73.27;100065.48;;;;-54
2021/09/15 03:08:09;;;;;;;3.72;3.41;;;;;;;21.06;73.32;100064.83;;;;-53
2021/09/15 03:11:09;;;;;;;4.15;3.44;;;;;;;21.06;73.29;100065.16;;;;-53
2021/09/15 03:14:09;;;;;;;4.19;3.63;;;;;;;21.05;73.31;100053.03;;;;-52
2021/09/15 03:17:09;;;;;;;5.77;4.48;;;;;;;21.05;73.25;100048.62;;;;-54
2021/09/15 03:20:09;;;;;;;4.07;3.68;;;;;;;21.05;73.28;100046.67;;;;-53
2021/09/15 03:23:09;;;;;;;4.71;3.59;;;;;;;21.04;73.29;100050.60;;;;-54
2021/09/15 03:26:09;;;;;;;3.79;3.49;;;;;;;21.05;73.22;100054.09;;;;-61
2021/09/15 03:29:09;;;;;;;3.73;3.43;;;;;;;21.04;73.34;100053.70;;;;-53
2021/09/15 03:32:09;;;;;;;3.85;3.45;;;;;;;21.04;73.25;100052.12;;;;-53
2021/09/15 03:35:09;;;;;;;4.45;3.59;;;;;;;21.04;73.29;100058.33;;;;-53
2021/09/15 03:38:09;;;;;;;3.77;3.47;;;;;;;21.04;73.29;100052.95;;;;-53
2021/09/15 03:41:09;;;;;;;4.08;3.68;;;;;;;21.03;73.40;100046.20;;;;-58
2021/09/15 03:44:09;;;;;;;3.64;3.28;;;;;;;21.03;73.27;100044.23;;;;-59
2021/09/15 03:47:09;;;;;;;3.92;3.59;;;;;;;21.03;73.29;100040.50;;;;-58
2021/09/15 03:50:09;;;;;;;4.63;3.60;;;;;;;21.03;73.30;100040.41;;;;-61
2021/09/15 03:53:09;;;;;;;3.59;3.29;;;;;;;21.02;73.32;100038.07;;;;-61
2021/09/15 03:56:09;;;;;;;3.82;3.45;;;;;;;21.02;73.30;100037.31;;;;-61
2021/09/15 03:59:09;;;;;;;3.79;3.48;;;;;;;21.02;73.33;100044.00;;;;-53
2021/09/15 04:02:09;;;;;;;3.53;3.23;;;;;;;21.02;73.39;100043.50;;;;-53
2021/09/15 04:05:09;;;;;;;3.71;3.30;;;;;;;21.02;73.30;100049.22;;;;-53
2021/09/15 04:08:09;;;;;;;3.77;3.47;;;;;;;21.01;73.36;100051.11;;;;-53
2021/09/15 04:11:09;;;;;;;3.75;3.40;;;;;;;21.01;73.32;100055.43;;;;-53
2021/09/15 04:14:09;;;;;;;3.73;3.43;;;;;;;21.01;73.31;100056.16;;;;-53
2021/09/15 04:17:09;;;;;;;3.62;3.32;;;;;;;21.01;73.33;100061.30;;;;-52
2021/09/15 04:20:09;;;;;;;3.71;3.41;;;;;;;21.00;73.39;100069.04;;;;-57
2021/09/15 04:23:14;;;;;;;3.61;3.31;;;;;;;21.01;73.34;100073.52;;;;-53
2021/09/15 04:32:09;;;;;;;3.67;3.37;;;;;;;21.00;73.31;100079.62;;;;-61
2021/09/15 04:35:09;;;;;;;3.65;3.35;;;;;;;21.00;73.39;100084.52;;;;-52
2021/09/15 04:38:09;;;;;;;3.59;3.29;;;;;;;20.99;73.38;100090.77;;;;-52
2021/09/15 04:41:09;;;;;;;3.67;3.37;;;;;;;21.00;73.44;100093.95;;;;-52
2021/09/15 04:44:09;;;;;;;7.97;7.16;;;;;;;20.99;73.30;100094.52;;;;-59
2021/09/15 04:47:09;;;;;;;3.55;3.25;;;;;;;20.99;73.40;100093.22;;;;-58
2021/09/15 04:50:09;;;;;;;4.94;3.19;;;;;;;20.98;73.41;100096.34;;;;-58
2021/09/15 04:53:09;;;;;;;4.96;3.29;;;;;;;20.99;73.33;100093.48;;;;-61
2021/09/15 04:56:09;;;;;;;4.77;3.29;;;;;;;20.99;73.40;100090.95;;;;-61
2021/09/15 04:59:09;;;;;;;3.71;3.38;;;;;;;20.98;73.34;100085.42;;;;-61
2021/09/15 05:02:09;;;;;;;3.61;3.31;;;;;;;20.99;73.41;100081.90;;;;-61
2021/09/15 05:05:09;;;;;;;3.54;3.24;;;;;;;20.99;73.44;100083.61;;;;-52
2021/09/15 05:08:09;;;;;;;4.00;3.18;;;;;;;20.98;73.40;100085.75;;;;-61
2021/09/15 05:11:09;;;;;;;446.97;408.37;;;;;;;20.98;73.40;100094.55;;;;-58
2021/09/15 05:14:09;;;;;;;3.50;3.20;;;;;;;20.99;73.42;100102.60;;;;-61
2021/09/15 05:17:09;;;;;;;3.53;3.23;;;;;;;20.99;73.42;100106.75;;;;-58
2021/09/15 05:20:09;;;;;;;3.57;3.21;;;;;;;20.99;73.39;100105.21;;;;-52
2021/09/15 05:23:09;;;;;;;3.59;3.29;;;;;;;20.99;73.31;100108.30;;;;-62
2021/09/15 05:26:09;;;;;;;3.57;3.27;;;;;;;20.98;73.29;100106.85;;;;-53
2021/09/15 05:29:09;;;;;;;3.99;3.41;;;;;;;20.99;73.35;100104.39;;;;-53
2021/09/15 05:32:11;;;;;;;3.63;3.33;;;;;;;20.98;73.40;100103.19;;;;-52
2021/09/15 05:35:09;;;;;;;3.46;3.16;;;;;;;20.98;73.33;100097.48;;;;-52
2021/09/15 05:38:09;;;;;;;3.66;3.31;;;;;;;20.98;73.30;100097.00;;;;-53
2021/09/15 05:41:09;;;;;;;3.40;3.10;;;;;;;20.98;73.37;100102.45;;;;-53
2021/09/15 05:44:09;;;;;;;3.32;3.03;;;;;;;20.97;73.34;100101.30;;;;-53
2021/09/15 05:47:09;;;;;;;3.44;3.14;;;;;;;20.98;73.34;100105.85;;;;-58
2021/09/15 05:50:09;;;;;;;3.59;3.29;;;;;;;20.98;73.33;100106.66;;;;-53
2021/09/15 05:53:09;;;;;;;3.55;3.25;;;;;;;20.96;73.29;100105.63;;;;-61
2021/09/15 05:56:09;;;;;;;3.45;3.15;;;;;;;20.97;73.39;100107.17;;;;-52
2021/09/15 05:59:09;;;;;;;3.45;3.15;;;;;;;20.96;73.31;100110.69;;;;-52
2021/09/15 06:02:09;;;;;;;3.31;3.01;;;;;;;20.98;73.29;100117.85;;;;-52
2021/09/15 06:05:09;;;;;;;3.50;3.20;;;;;;;20.97;73.27;100122.56;;;;-58
2021/09/15 06:08:09;;;;;;;3.13;2.93;;;;;;;20.96;73.29;100126.00;;;;-58
2021/09/15 06:11:09;;;;;;;3.31;3.03;;;;;;;20.97;73.28;100136.33;;;;-52
2021/09/15 06:14:09;;;;;;;3.37;3.07;;;;;;;20.97;73.20;100137.22;;;;-52
2021/09/15 06:17:09;;;;;;;3.37;3.07;;;;;;;20.96;73.27;100138.87;;;;-52
2021/09/15 06:20:09;;;;;;;3.32;3.02;;;;;;;20.96;73.28;100135.45;;;;-52
2021/09/15 06:23:10;;;;;;;3.49;3.19;;;;;;;20.97;73.22;100137.72;;;;-53
2021/09/15 06:26:09;;;;;;;3.53;3.23;;;;;;;20.97;73.25;100137.72;;;;-52
2021/09/15 06:29:09;;;;;;;3.24;2.94;;;;;;;20.96;73.26;100137.23;;;;-53
2021/09/15 06:32:09;;;;;;;3.57;3.27;;;;;;;20.96;73.19;100137.47;;;;-61
2021/09/15 06:35:09;;;;;;;3.19;2.89;;;;;;;20.97;73.18;100138.20;;;;-61
2021/09/15 06:38:09;;;;;;;3.26;2.95;;;;;;;20.96;73.23;100138.47;;;;-61
2021/09/15 06:41:09;;;;;;;3.44;3.14;;;;;;;20.96;73.20;100141.33;;;;-53
2021/09/15 06:44:09;;;;;;;3.12;2.82;;;;;;;20.96;73.21;100144.58;;;;-61
2021/09/15 06:47:09;;;;;;;3.41;3.09;;;;;;;20.96;73.21;100139.09;;;;-61
2021/09/15 06:50:09;;;;;;;3.50;3.20;;;;;;;20.96;73.26;100140.75;;;;-61
2021/09/15 06:53:09;;;;;;;3.43;2.93;;;;;;;20.95;73.22;100138.70;;;;-61
2021/09/15 06:56:09;;;;;;;3.24;2.94;;;;;;;20.96;73.21;100139.37;;;;-61
2021/09/15 06:59:09;;;;;;;3.25;2.95;;;;;;;20.96;73.16;100138.80;;;;-61
2021/09/15 07:02:09;;;;;;;3.51;3.21;;;;;;;20.96;73.19;100141.22;;;;-61
2021/09/15 07:05:09;;;;;;;3.21;2.91;;;;;;;20.96;73.12;100138.72;;;;-58
2021/09/15 07:08:10;;;;;;;3.29;2.99;;;;;;;20.96;73.17;100136.17;;;;-52
2021/09/15 07:11:09;;;;;;;3.46;3.16;;;;;;;20.96;73.15;100132.91;;;;-58
2021/09/15 07:14:09;;;;;;;3.89;3.19;;;;;;;20.96;73.22;100127.53;;;;-58
2021/09/15 07:17:09;;;;;;;3.05;2.83;;;;;;;20.95;73.27;100125.83;;;;-57
2021/09/15 07:20:09;;;;;;;3.96;3.01;;;;;;;20.95;73.21;100126.41;;;;-57
2021/09/15 07:23:09;;;;;;;3.45;2.92;;;;;;;20.95;73.27;100123.80;;;;-58
2021/09/15 07:26:09;;;;;;;3.78;3.05;;;;;;;20.95;73.16;100124.84;;;;-53
2021/09/15 07:29:09;;;;;;;3.37;2.83;;;;;;;20.95;73.24;100124.20;;;;-52
2021/09/15 07:32:09;;;;;;;3.13;2.92;;;;;;;20.95;73.16;100124.05;;;;-61
2021/09/15 07:35:09;;;;;;;3.43;3.13;;;;;;;20.95;73.19;100126.81;;;;-61
2021/09/15 07:38:09;;;;;;;3.21;2.85;;;;;;;20.95;73.21;100127.54;;;;-61
2021/09/15 07:41:09;;;;;;;3.17;2.89;;;;;;;20.96;73.14;100130.47;;;;-53
2021/09/15 07:44:09;;;;;;;3.28;2.98;;;;;;;20.95;73.20;100130.80;;;;-53
2021/09/15 07:47:15;;;;;;;3.23;2.92;;;;;;;20.95;73.22;100133.00;;;;-53
2021/09/15 07:50:09;;;;;;;3.08;2.85;;;;;;;20.95;73.23;100138.30;;;;-58
2021/09/15 07:53:09;;;;;;;3.15;2.91;;;;;;;20.94;73.18;100136.27;;;;-61
2021/09/15 07:56:09;;;;;;;3.38;3.08;;;;;;;20.95;73.28;100139.94;;;;-61
2021/09/15 07:59:09;;;;;;;3.24;2.95;;;;;;;20.94;73.20;100144.58;;;;-60
2021/09/15 08:02:09;;;;;;;3.01;2.80;;;;;;;20.95;73.22;100148.32;;;;-61
2021/09/15 08:05:09;;;;;;;3.04;2.80;;;;;;;20.94;73.20;100152.89;;;;-53
2021/09/15 08:08:12;;;;;;;3.23;2.93;;;;;;;20.94;73.17;100164.62;;;;-53
2021/09/15 08:11:09;;;;;;;2.89;2.69;;;;;;;20.95;73.24;100158.09;;;;-58
2021/09/15 08:14:09;;;;;;;3.24;2.79;;;;;;;20.96;73.29;100162.67;;;;-52
2021/09/15 08:17:09;;;;;;;3.03;2.79;;;;;;;20.97;73.51;100160.77;;;;-57
2021/09/15 08:20:09;;;;;;;3.31;3.01;;;;;;;20.99;73.58;100148.79;;;;-55
2021/09/15 08:23:09;;;;;;;3.46;2.90;;;;;;;21.02;73.83;100155.36;;;;-61
2021/09/15 08:26:09;;;;;;;4.46;2.87;;;;;;;21.03;74.10;100159.27;;;;-60
2021/09/15 08:29:09;;;;;;;4.05;3.24;;;;;;;21.06;74.39;100162.11;;;;-58
2021/09/15 08:32:09;;;;;;;3.75;2.91;;;;;;;21.06;74.23;100164.88;;;;-59
2021/09/15 08:35:09;;;;;;;3.53;3.18;;;;;;;21.06;74.15;100169.11;;;;-54
2021/09/15 08:38:09;;;;;;;4.90;2.93;;;;;;;21.06;74.30;100162.19;;;;-54
2021/09/15 08:41:09;;;;;;;3.56;3.19;;;;;;;21.06;74.08;100159.82;;;;-51
2021/09/15 08:44:09;;;;;;;13.94;3.61;;;;;;;21.09;74.42;100164.23;;;;-55
2021/09/15 08:47:09;;;;;;;3.87;3.39;;;;;;;21.11;74.61;100161.20;;;;-57
2021/09/15 08:50:09;;;;;;;3.79;3.07;;;;;;;21.12;74.53;100163.78;;;;-61
2021/09/15 08:53:09;;;;;;;5.07;3.14;;;;;;;21.14;74.51;100165.97;;;;-57
2021/09/15 08:56:09;;;;;;;5.31;3.32;;;;;;;21.15;74.53;100168.44;;;;-61
2021/09/15 08:59:09;;;;;;;4.43;3.29;;;;;;;21.17;74.59;100165.74;;;;-59
2021/09/15 09:02:09;;;;;;;5.46;3.09;;;;;;;21.17;74.54;100153.42;;;;-57
2021/09/15 09:05:09;;;;;;;4.21;3.13;;;;;;;21.19;74.53;100160.02;;;;-59
2021/09/15 09:08:09;;;;;;;4.70;3.04;;;;;;;21.20;74.61;100159.35;;;;-60
2021/09/15 09:11:09;;;;;;;7.06;3.17;;;;;;;21.21;74.65;100159.11;;;;-61
2021/09/15 09:14:09;;;;;;;6.73;3.05;;;;;;;21.22;74.35;100153.06;;;;-66
2021/09/15 09:17:09;;;;;;;6.39;3.52;;;;;;;21.24;74.51;100152.25;;;;-52
2021/09/15 09:20:09;;;;;;;5.67;3.24;;;;;;;21.24;74.79;100159.32;;;;-53
2021/09/15 09:23:09;;;;;;;6.59;3.22;;;;;;;21.26;74.83;100160.06;;;;-55
2021/09/15 09:26:09;;;;;;;6.67;3.51;;;;;;;21.27;74.53;100161.58;;;;-53
2021/09/15 09:29:09;;;;;;;12.20;3.77;;;;;;;21.30;74.59;100162.48;;;;-59
2021/09/15 09:32:09;;;;;;;9.56;3.29;;;;;;;21.28;74.56;100162.41;;;;-59
2021/09/15 09:35:09;;;;;;;8.47;3.18;;;;;;;21.28;74.41;100160.38;;;;-53
2021/09/15 09:38:09;;;;;;;7.73;3.30;;;;;;;21.28;74.49;100163.86;;;;-55
2021/09/15 09:41:09;;;;;;;7.35;3.21;;;;;;;21.30;74.65;100164.26;;;;-60
2021/09/15 09:44:10;;;;;;;10.36;3.29;;;;;;;21.31;74.73;100167.86;;;;-52
2021/09/15 09:47:09;;;;;;;9.41;3.51;;;;;;;21.32;74.79;100171.52;;;;-54
2021/09/15 09:50:09;;;;;;;5.62;3.13;;;;;;;21.32;74.64;100165.39;;;;-57
2021/09/15 09:53:09;;;;;;;8.33;3.31;;;;;;;21.33;74.38;100166.54;;;;-61
2021/09/15 09:56:09;;;;;;;7.31;3.34;;;;;;;21.32;74.59;100166.45;;;;-57
2021/09/15 09:59:09;;;;;;;8.21;3.45;;;;;;;21.33;74.70;100166.20;;;;-60
2021/09/15 10:02:09;;;;;;;8.57;3.19;;;;;;;21.34;74.66;100163.67;;;;-61
2021/09/15 10:05:09;;;;;;;8.03;3.33;;;;;;;21.34;74.73;100166.36;;;;-57
2021/09/15 10:08:09;;;;;;;6.77;3.49;;;;;;;21.36;74.78;100166.03;;;;-57
2021/09/15 10:11:09;;;;;;;5.56;3.05;;;;;;;21.36;74.73;100167.00;;;;-57
2021/09/15 10:14:09;;;;;;;6.40;3.22;;;;;;;21.36;74.73;100164.39;;;;-54
2021/09/15 10:17:09;;;;;;;7.99;3.29;;;;;;;21.37;74.65;100164.88;;;;-61
2021/09/15 10:20:10;;;;;;;4.75;3.14;;;;;;;21.38;74.65;100162.10;;;;-58
2021/09/15 10:23:09;;;;;;;5.33;3.09;;;;;;;21.39;74.57;100156.95;;;;-55
2021/09/15 10:26:09;;;;;;;6.33;3.29;;;;;;;21.39;74.48;100159.47;;;;-51
2021/09/15 10:29:09;;;;;;;5.62;3.08;;;;;;;21.39;74.63;100158.84;;;;-53
2021/09/15 10:32:09;;;;;;;6.47;3.35;;;;;;;21.40;74.56;100152.72;;;;-50
2021/09/15 10:35:09;;;;;;;6.37;3.13;;;;;;;21.40;74.46;100154.09;;;;-52
2021/09/15 10:38:09;;;;;;;9.01;3.31;;;;;;;21.42;74.74;100150.94;;;;-58
2021/09/15 10:41:09;;;;;;;4.41;2.88;;;;;;;21.44;74.67;100152.48;;;;-53
2021/09/15 10:44:09;;;;;;;7.43;3.29;;;;;;;21.44;74.64;100153.21;;;;-53
2021/09/15 10:47:09;;;;;;;5.85;3.21;;;;;;;21.44;74.63;100147.50;;;;-51
2021/09/15 10:50:09;;;;;;;7.76;3.32;;;;;;;21.44;74.59;100145.97;;;;-49
2021/09/15 10:53:09;;;;;;;4.32;2.97;;;;;;;21.45;74.55;100146.26;;;;-59
2021/09/15 10:56:09;;;;;;;6.19;3.35;;;;;;;21.45;74.50;100147.40;;;;-60
2021/09/15 10:59:09;;;;;;;5.32;3.00;;;;;;;21.46;74.54;100141.79;;;;-58
2021/09/15 11:02:09;;;;;;;4.65;3.20;;;;;;;21.47;74.48;100138.27;;;;-58
2021/09/15 11:05:09;;;;;;;5.12;3.09;;;;;;;21.47;74.41;100137.61;;;;-57
2021/09/15 11:08:09;;;;;;;4.51;3.03;;;;;;;21.48;74.42;100139.38;;;;-57
2021/09/15 11:11:09;;;;;;;7.10;2.92;;;;;;;21.48;74.30;100135.41;;;;-59
2021/09/15 11:14:09;;;;;;;3.76;2.97;;;;;;;21.48;74.37;100131.73;;;;-59
2021/09/15 11:17:09;;;;;;;5.81;3.03;;;;;;;21.49;74.39;100129.69;;;;-52
2021/09/15 11:20:09;;;;;;;6.85;3.11;;;;;;;21.49;74.28;100129.77;;;;-57
2021/09/15 11:23:09;;;;;;;3.77;2.89;;;;;;;21.49;74.29;100129.84;;;;-57
2021/09/15 11:26:09;;;;;;;3.88;2.85;;;;;;;21.49;74.31;100126.34;;;;-59
2021/09/15 11:29:09;;;;;;;3.86;2.87;;;;;;;21.50;74.34;100126.76;;;;-62
2021/09/15 11:32:09;;;;;;;5.07;2.79;;;;;;;21.50;74.32;100124.20;;;;-60
2021/09/15 11:35:09;;;;;;;4.56;2.91;;;;;;;21.51;74.26;100127.08;;;;-56
2021/09/15 11:38:09;;;;;;;3.30;2.96;;;;;;;21.50;74.22;100123.17;;;;-58
2021/09/15 11:41:09;;;;;;;4.49;2.80;;;;;;;21.50;73.96;100123.50;;;;-57
2021/09/15 11:44:09;;;;;;;4.20;2.92;;;;;;;21.50;74.08;100120.30;;;;-57
2021/09/15 11:47:09;;;;;;;4.35;2.99;;;;;;;21.48;74.10;100120.89;;;;-57
2021/09/15 11:50:09;;;;;;;3.17;2.87;;;;;;;21.48;74.07;100122.69;;;;-58
2021/09/15 11:53:11;;;;;;;4.77;2.69;;;;;;;21.48;73.98;100120.30;;;;-57
2021/09/15 11:56:18;;;;;;;3.18;2.70;;;;;;;21.47;74.02;100118.28;;;;-57
2021/09/15 11:59:09;;;;;;;3.23;2.90;;;;;;;21.46;73.89;100120.65;;;;-57
2021/09/15 12:02:09;;;;;;;3.51;2.90;;;;;;;21.46;73.94;100117.98;;;;-58
2021/09/15 12:05:09;;;;;;;5.69;3.11;;;;;;;21.46;73.86;100120.97;;;;-54
2021/09/15 12:08:09;;;;;;;4.89;2.83;;;;;;;21.44;73.86;100113.91;;;;-54
2021/09/15 12:11:09;;;;;;;4.25;2.96;;;;;;;21.44;73.80;100109.92;;;;-54
2021/09/15 12:14:09;;;;;;;3.63;2.87;;;;;;;21.43;73.79;100103.95;;;;-53
2021/09/15 12:17:09;;;;;;;3.51;2.71;;;;;;;21.44;73.72;100101.20;;;;-53
2021/09/15 12:20:09;;;;;;;3.92;2.83;;;;;;;21.44;73.74;100094.28;;;;-54
2021/09/15 12:23:09;;;;;;;3.86;2.97;;;;;;;21.43;73.75;100086.77;;;;-53
2021/09/15 12:26:08;;;;;;;5.01;2.67;;;;;;;21.44;73.62;100079.35;;;;-59
2021/09/15 12:29:09;;;;;;;3.75;3.03;;;;;;;21.45;74.54;100078.60;;;;-56
2021/09/15 12:32:09;;;;;;;5.33;3.11;;;;;;;21.45;74.29;100071.66;;;;-54
2021/09/15 12:35:09;;;;;;;5.43;2.85;;;;;;;21.47;74.76;100066.42;;;;-55
2021/09/15 12:38:09;;;;;;;9.68;3.07;;;;;;;21.48;74.88;100066.11;;;;-57
2021/09/15 12:41:09;;;;;;;9.73;3.12;;;;;;;21.49;74.60;100065.35;;;;-56
2021/09/15 12:44:09;;;;;;;3.84;2.84;;;;;;;21.49;74.52;100063.81;;;;-55
2021/09/15 12:47:09;;;;;;;8.44;3.01;;;;;;;21.51;74.40;100065.76;;;;-60
2021/09/15 12:50:09;;;;;;;17.46;3.27;;;;;;;21.52;74.55;100071.14;;;;-59
2021/09/15 12:53:09;;;;;;;11.55;3.38;;;;;;;21.53;74.71;100070.86;;;;-57
2021/09/15 12:56:09;;;;;;;12.41;3.21;;;;;;;21.55;74.82;100074.36;;;;-53
2021/09/15 12:59:09;;;;;;;9.94;3.17;;;;;;;21.56;74.66;100067.33;;;;-58
2021/09/15 13:02:09;;;;;;;9.45;3.23;;;;;;;21.56;74.61;100067.90;;;;-58
2021/09/15 13:05:09;;;;;;;8.03;3.21;;;;;;;21.56;74.55;100068.98;;;;-58
2021/09/15 13:08:09;;;;;;;12.01;3.31;;;;;;;21.56;74.33;100068.00;;;;-54
2021/09/15 13:11:09;;;;;;;8.77;3.17;;;;;;;21.55;74.35;100070.86;;;;-61
2021/09/15 13:14:09;;;;;;;6.21;3.19;;;;;;;21.56;74.34;100071.65;;;;-56
2021/09/15 13:17:09;;;;;;;8.50;3.01;;;;;;;21.57;74.37;100075.06;;;;-51
2021/09/15 13:20:09;;;;;;;5.29;3.07;;;;;;;21.57;74.36;100078.42;;;;-57
2021/09/15 13:23:09;;;;;;;8.23;2.85;;;;;;;21.58;74.33;100073.61;;;;-60
2021/09/15 13:26:09;;;;;;;5.57;2.93;;;;;;;21.59;74.35;100073.19;;;;-59
2021/09/15 13:29:08;;;;;;;10.51;2.98;;;;;;;21.58;74.34;100075.38;;;;-60
2021/09/15 13:32:09;;;;;;;12.57;3.33;;;;;;;21.59;74.17;100079.05;;;;-52
2021/09/15 13:35:09;;;;;;;8.96;2.83;;;;;;;21.60;74.40;100075.47;;;;-59
2021/09/15 13:38:09;;;;;;;7.37;2.80;;;;;;;21.62;74.44;100069.98;;;;-57
2021/09/15 13:41:09;;;;;;;11.27;3.04;;;;;;;21.62;74.51;100066.23;;;;-58
2021/09/15 13:44:09;;;;;;;8.53;2.99;;;;;;;21.62;74.46;100068.11;;;;-56
2021/09/15 13:47:09;;;;;;;10.11;2.99;;;;;;;21.63;74.46;100066.38;;;;-53
2021/09/15 13:50:09;;;;;;;5.81;2.81;;;;;;;21.63;74.46;100058.72;;;;-52
2021/09/15 13:53:09;;;;;;;8.01;2.95;;;;;;;21.62;74.39;100058.48;;;;-54
2021/09/15 13:56:09;;;;;;;6.39;2.89;;;;;;;21.62;74.42;100061.75;;;;-53
2021/09/15 13:59:09;;;;;;;3.90;2.63;;;;;;;21.62;74.41;100060.83;;;;-52
2021/09/15 14:02:09;;;;;;;6.71;2.92;;;;;;;21.62;74.47;100061.43;;;;-59
2021/09/15 14:05:09;;;;;;;5.59;2.89;;;;;;;21.62;74.43;100060.52;;;;-51
2021/09/15 14:08:10;;;;;;;4.99;3.04;;;;;;;21.62;74.41;100062.08;;;;-51
2021/09/15 14:11:09;;;;;;;7.94;2.83;;;;;;;21.63;74.46;100065.58;;;;-57
2021/09/15 14:14:09;;;;;;;6.11;2.94;;;;;;;21.63;74.46;100067.77;;;;-60
2021/09/15 14:17:09;;;;;;;5.96;3.17;;;;;;;21.63;74.41;100068.74;;;;-57
2021/09/15 14:20:09;;;;;;;7.47;2.91;;;;;;;21.64;74.36;100069.05;;;;-55
2021/09/15 14:23:08;;;;;;;8.87;2.89;;;;;;;21.64;74.40;100067.27;;;;-53
2021/09/15 14:26:09;;;;;;;6.01;3.08;;;;;;;21.64;74.36;100067.83;;;;-59
2021/09/15 14:29:09;;;;;;;5.82;2.83;;;;;;;21.64;74.19;100066.70;;;;-54
2021/09/15 14:32:09;;;;;;;5.23;2.73;;;;;;;21.63;74.23;100064.91;;;;-53
2021/09/15 14:35:09;;;;;;;5.83;2.94;;;;;;;21.63;74.23;100062.81;;;;-53
2021/09/15 14:38:08;;;;;;;3.70;2.75;;;;;;;21.61;74.22;100063.30;;;;-52
2021/09/15 14:41:09;;;;;;;4.37;2.74;;;;;;;21.61;74.14;100061.67;;;;-53
2021/09/15 14:44:09;;;;;;;2.77;2.23;;;;;;;21.60;74.02;100063.73;;;;-59
2021/09/15 14:47:10;;;;;;;4.67;2.73;;;;;;;21.59;74.03;100061.11;;;;-59
2021/09/15 14:50:09;;;;;;;6.67;2.61;;;;;;;21.59;74.04;100058.83;;;;-64
2021/09/15 14:53:09;;;;;;;4.13;2.61;;;;;;;21.59;74.07;100056.80;;;;-61
2021/09/15 14:56:09;;;;;;;5.85;2.65;;;;;;;21.60;74.16;100054.33;;;;-55
2021/09/15 14:59:09;;;;;;;3.15;2.47;;;;;;;21.60;74.18;100052.70;;;;-52
2021/09/15 15:02:09;;;;;;;7.12;2.77;;;;;;;21.60;74.02;100053.44;;;;-59
2021/09/15 15:05:09;;;;;;;3.91;2.71;;;;;;;21.60;74.26;100053.11;;;;-60
2021/09/15 15:08:09;;;;;;;7.80;2.65;;;;;;;21.59;74.15;100053.53;;;;-63
2021/09/15 15:11:08;;;;;;;6.07;2.68;;;;;;;21.58;74.18;100052.98;;;;-55
2021/09/15 15:14:09;;;;;;;4.56;2.45;;;;;;;21.58;74.14;100047.84;;;;-55
2021/09/15 15:17:08;;;;;;;4.98;2.67;;;;;;;21.58;74.13;100048.00;;;;-55
2021/09/15 15:20:09;;;;;;;5.17;2.51;;;;;;;21.57;74.02;100042.12;;;;-55
2021/09/15 15:23:09;;;;;;;4.99;2.57;;;;;;;21.58;74.07;100040.64;;;;-55
2021/09/15 15:26:08;;;;;;;4.67;2.62;;;;;;;21.57;74.02;100037.32;;;;-55
2021/09/15 15:29:09;;;;;;;4.35;2.71;;;;;;;21.57;74.00;100034.64;;;;-55
2021/09/15 15:32:09;;;;;;;3.84;2.53;;;;;;;21.56;74.00;100036.61;;;;-55
2021/09/15 15:35:09;;;;;;;3.90;2.42;;;;;;;21.56;73.93;100035.46;;;;-55
2021/09/15 15:38:09;;;;;;;4.01;2.38;;;;;;;21.56;73.86;100033.43;;;;-55
2021/09/15 15:41:08;;;;;;;4.22;2.50;;;;;;;21.56;73.92;100035.22;;;;-55
2021/09/15 15:44:10;;;;;;;4.53;2.29;;;;;;;21.55;73.80;100033.59;;;;-55
2021/09/15 15:47:09;;;;;;;3.52;2.51;;;;;;;21.54;73.85;100037.11;;;;-55
2021/09/15 15:50:08;;;;;;;3.46;2.45;;;;;;;21.55;73.86;100042.08;;;;-56
2021/09/15 15:53:09;;;;;;;4.05;2.39;;;;;;;21.54;73.85;100039.55;;;;-59
2021/09/15 15:56:09;;;;;;;4.55;2.43;;;;;;;21.54;73.83;100042.64;;;;-55
2021/09/15 15:59:10;;;;;;;4.28;2.39;;;;;;;21.53;73.79;100041.34;;;;-55
2021/09/15 16:02:09;;;;;;;3.05;2.31;;;;;;;21.54;73.80;100044.03;;;;-55
2021/09/15 16:05:09;;;;;;;4.29;2.51;;;;;;;21.53;73.78;100043.48;;;;-59
2021/09/15 16:08:09;;;;;;;4.62;2.47;;;;;;;21.53;73.72;100045.52;;;;-60
2021/09/15 16:11:09;;;;;;;4.56;2.58;;;;;;;21.52;73.76;100044.47;;;;-55
2021/09/15 16:14:09;;;;;;;4.01;2.35;;;;;;;21.52;73.71;100042.84;;;;-52
2021/09/15 16:17:09;;;;;;;4.69;2.55;;;;;;;21.53;73.62;100046.40;;;;-56
2021/09/15 16:20:08;;;;;;;3.09;2.51;;;;;;;21.53;73.72;100047.14;;;;-61
2021/09/15 16:23:09;;;;;;;2.47;2.23;;;;;;;21.54;73.78;100047.31;;;;-51
2021/09/15 16:26:09;;;;;;;5.08;2.37;;;;;;;21.55;73.84;100045.73;;;;-57
2021/09/15 16:29:08;;;;;;;3.65;2.33;;;;;;;21.56;73.92;100043.52;;;;-51
2021/09/15 16:32:09;;;;;;;3.58;2.28;;;;;;;21.57;73.99;100050.53;;;;-55
2021/09/15 16:35:09;;;;;;;2.61;2.41;;;;;;;21.57;74.05;100047.84;;;;-58
2021/09/15 16:38:09;;;;;;;3.21;2.32;;;;;;;21.58;74.08;100053.47;;;;-61
2021/09/15 16:41:09;;;;;;;4.69;2.45;;;;;;;21.58;74.12;100057.30;;;;-64
2021/09/15 16:44:09;;;;;;;2.61;2.39;;;;;;;21.59;74.04;100058.92;;;;-63
2021/09/15 16:47:09;;;;;;;3.35;2.47;;;;;;;21.60;74.14;100063.06;;;;-58